GCGM

Details ICAO GCGM (GMZ)
Name La Gomera
Region Canary Islands
Timezone Atlantic/Canary (UTC+1.0)
Plans Departing 109
Arriving 153
Stats Elevation 714 ft / 218 m (AMSL)
Location 28.029600° -17.214600°
Runways 1
Magnetic Variation 5.058° W
Sunrise 2020-07-08 06:20:07 UTC / 2020-07-08 07:20:07 Local
Sunset 2020-07-08 20:10:01 UTC / 2020-07-08 21:10:01 Local
Advertisement - Login to hide

Runways

ID Width Length Bearing (true/mag) Surface Threshold Overrun Markings Lighting
09 98 ft / 30 m 4,926 ft / 1,501 m 81.17° / 86.23° ASPHALT 0 ft / 0 m 0 ft / 0 m PREC-APP EDGE THRESHOLD REIL-OMNI
27 98 ft / 30 m 4,926 ft / 1,501 m 261.18° / 266.24° ASPHALT 0 ft / 0 m 0 ft / 0 m PREC-APP EDGE THRESHOLD REIL-OMNI

Map

Weather


0- 5 10 15 20 25 30 35+ Temperature / °C

Clouds and Precipitation
Forecast for 2020-07-09 00:00 UTC. Updated 17 minutes ago

Ground ~20,000 ft ~40,000 ft Winds

METAR

GCGM 082130Z AUTO VRB01KT CAVOK 23/21 Q1016 RMK R09/00000KT ARP/00000KT

TAF

TAF GCGM 082000Z 0821/0921 VRB03KT CAVOK TX27/0915Z TN21/0906Z= TAF GCHI 082000Z 0821/0921 35020KT 9999 BKN009 TX25/0915Z TN21/0906Z PROB30 TEMPO 0821/0921 35021G31KT PROB30 TEMPO 0821/0907 SCT009

Frequencies

Unicom 118.37 MHz La Gomera Infomation
Warning: Do not use this data for real-world aviation or navigation. No guarantee of current accuracy is given.